sensor_id;sensor_type;location;lat;lon;timestamp;pressure;altitude;pressure_sealevel;temperature;humidity
70217;BME280;65567;55.684;37.570;2023-07-13T00:00:04;98237.59;;;17.48;52.23
70217;BME280;65567;55.684;37.570;2023-07-13T00:02:34;98248.59;;;17.44;52.23
70217;BME280;65567;55.684;37.570;2023-07-13T00:05:00;98243.75;;;17.39;52.17
70217;BME280;65567;55.684;37.570;2023-07-13T00:07:26;98234.97;;;17.39;52.17
70217;BME280;65567;55.684;37.570;2023-07-13T00:09:52;98246.81;;;17.44;52.30
70217;BME280;65567;55.684;37.570;2023-07-13T00:12:29;98242.88;;;17.48;52.31
70217;BME280;65567;55.684;37.570;2023-07-13T00:14:57;98242.63;;;17.42;52.50
70217;BME280;65567;55.684;37.570;2023-07-13T00:17:24;98241.66;;;17.43;52.21
70217;BME280;65567;55.684;37.570;2023-07-13T00:19:54;98248.75;;;17.42;52.41
70217;BME280;65567;55.684;37.570;2023-07-13T00:22:21;98248.66;;;17.34;52.58
70217;BME280;65567;55.684;37.570;2023-07-13T00:24:47;98246.44;;;17.29;52.78
70217;BME280;65567;55.684;37.570;2023-07-13T00:27:13;98242.66;;;17.32;52.70
70217;BME280;65567;55.684;37.570;2023-07-13T00:29:39;98244.31;;;17.05;53.31
70217;BME280;65567;55.684;37.570;2023-07-13T00:32:06;98252.78;;;16.89;53.89
70217;BME280;65567;55.684;37.570;2023-07-13T00:34:32;98245.56;;;16.81;53.96
70217;BME280;65567;55.684;37.570;2023-07-13T00:36:58;98249.31;;;16.89;54.02
70217;BME280;65567;55.684;37.570;2023-07-13T00:39:24;98247.22;;;16.82;54.19
70217;BME280;65567;55.684;37.570;2023-07-13T00:41:50;98241.94;;;16.82;54.20
70217;BME280;65567;55.684;37.570;2023-07-13T00:44:18;98241.53;;;16.87;53.86
70217;BME280;65567;55.684;37.570;2023-07-13T00:46:45;98242.50;;;16.86;54.32
70217;BME280;65567;55.684;37.570;2023-07-13T00:49:17;98241.13;;;16.82;54.52
70217;BME280;65567;55.684;37.570;2023-07-13T00:51:48;98243.31;;;16.87;54.16
70217;BME280;65567;55.684;37.570;2023-07-13T00:54:19;98237.50;;;16.93;54.00
70217;BME280;65567;55.684;37.570;2023-07-13T00:56:49;98241.69;;;16.85;54.54
70217;BME280;65567;55.684;37.570;2023-07-13T00:59:17;98241.78;;;16.84;54.35
70217;BME280;65567;55.684;37.570;2023-07-13T01:01:44;98245.16;;;16.76;54.56
70217;BME280;65567;55.684;37.570;2023-07-13T01:04:10;98237.81;;;16.70;54.96
70217;BME280;65567;55.684;37.570;2023-07-13T01:06:37;98242.25;;;16.69;55.05
70217;BME280;65567;55.684;37.570;2023-07-13T01:09:04;98244.47;;;16.74;54.86
70217;BME280;65567;55.684;37.570;2023-07-13T01:11:30;98243.91;;;16.80;54.82
70217;BME280;65567;55.684;37.570;2023-07-13T01:13:55;98241.41;;;16.69;55.07
70217;BME280;65567;55.684;37.570;2023-07-13T01:16:27;98237.53;;;16.63;55.48
70217;BME280;65567;55.684;37.570;2023-07-13T01:18:54;98237.66;;;16.62;55.48
70217;BME280;65567;55.684;37.570;2023-07-13T01:21:19;98245.47;;;16.63;55.57
70217;BME280;65567;55.684;37.570;2023-07-13T01:23:45;98232.09;;;16.65;55.49
70217;BME280;65567;55.684;37.570;2023-07-13T01:26:11;98229.59;;;16.63;55.58
70217;BME280;65567;55.684;37.570;2023-07-13T01:28:37;98231.53;;;16.61;55.57
70217;BME280;65567;55.684;37.570;2023-07-13T01:31:03;98222.09;;;16.68;55.57
70217;BME280;65567;55.684;37.570;2023-07-13T01:33:29;98224.16;;;16.65;55.43
70217;BME280;65567;55.684;37.570;2023-07-13T01:35:55;98222.22;;;16.57;55.79
70217;BME280;65567;55.684;37.570;2023-07-13T01:38:23;98224.03;;;16.66;55.76
70217;BME280;65567;55.684;37.570;2023-07-13T01:40:53;98216.38;;;16.54;56.02
70217;BME280;65567;55.684;37.570;2023-07-13T01:43:19;98225.03;;;16.46;56.02
70217;BME280;65567;55.684;37.570;2023-07-13T01:45:45;98223.06;;;16.48;56.22
70217;BME280;65567;55.684;37.570;2023-07-13T01:48:11;98225.03;;;16.46;56.33
70217;BME280;65567;55.684;37.570;2023-07-13T01:50:37;98228.22;;;16.49;56.18
70217;BME280;65567;55.684;37.570;2023-07-13T01:53:03;98212.78;;;16.55;56.08
70217;BME280;65567;55.684;37.570;2023-07-13T01:55:29;98217.50;;;16.51;56.56
70217;BME280;65567;55.684;37.570;2023-07-13T01:57:56;98206.63;;;16.54;56.39
70217;BME280;65567;55.684;37.570;2023-07-13T02:00:22;98213.59;;;16.55;56.31
70217;BME280;65567;55.684;37.570;2023-07-13T02:02:48;98211.91;;;16.64;55.83
70217;BME280;65567;55.684;37.570;2023-07-13T02:05:14;98210.53;;;16.60;56.36
70217;BME280;65567;55.684;37.570;2023-07-13T02:07:40;98210.94;;;16.65;56.12
70217;BME280;65567;55.684;37.570;2023-07-13T02:10:07;98212.44;;;16.77;55.99
70217;BME280;65567;55.684;37.570;2023-07-13T02:12:34;98211.88;;;16.83;55.67
70217;BME280;65567;55.684;37.570;2023-07-13T02:15:00;98208.94;;;16.87;55.49
70217;BME280;65567;55.684;37.570;2023-07-13T02:17:26;98210.47;;;16.99;55.41
70217;BME280;65567;55.684;37.570;2023-07-13T02:19:52;98202.53;;;16.99;55.26
70217;BME280;65567;55.684;37.570;2023-07-13T02:22:18;98200.97;;;17.06;55.17
70217;BME280;65567;55.684;37.570;2023-07-13T02:24:44;98207.34;;;17.13;55.07
70217;BME280;65567;55.684;37.570;2023-07-13T02:27:10;98209.53;;;17.28;54.84
70217;BME280;65567;55.684;37.570;2023-07-13T02:29:35;98205.59;;;17.32;54.50
70217;BME280;65567;55.684;37.570;2023-07-13T02:32:01;98212.81;;;17.40;54.26
70217;BME280;65567;55.684;37.570;2023-07-13T02:34:27;98209.03;;;17.42;54.25
70217;BME280;65567;55.684;37.570;2023-07-13T02:36:53;98207.88;;;17.55;54.12
70217;BME280;65567;55.684;37.570;2023-07-13T02:39:18;98200.59;;;17.57;54.04
70217;BME280;65567;55.684;37.570;2023-07-13T02:41:44;98199.19;;;17.62;53.84
70217;BME280;65567;55.684;37.570;2023-07-13T02:44:12;98197.75;;;17.68;53.51
70217;BME280;65567;55.684;37.570;2023-07-13T02:46:39;98192.06;;;17.63;53.66
70217;BME280;65567;55.684;37.570;2023-07-13T02:49:04;98191.38;;;17.61;53.83
70217;BME280;65567;55.684;37.570;2023-07-13T02:51:30;98193.50;;;17.57;53.98
70217;BME280;65567;55.684;37.570;2023-07-13T02:53:58;98188.06;;;17.59;53.72
70217;BME280;65567;55.684;37.570;2023-07-13T02:56:26;98199.03;;;17.64;53.69
70217;BME280;65567;55.684;37.570;2023-07-13T02:58:52;98196.63;;;17.71;53.53
70217;BME280;65567;55.684;37.570;2023-07-13T03:01:19;98199.44;;;17.69;53.56
70217;BME280;65567;55.684;37.570;2023-07-13T03:03:46;98196.78;;;17.69;53.57
70217;BME280;65567;55.684;37.570;2023-07-13T03:06:12;98193.81;;;17.72;53.66
70217;BME280;65567;55.684;37.570;2023-07-13T03:08:38;98194.63;;;17.55;53.84
70217;BME280;65567;55.684;37.570;2023-07-13T03:11:10;98189.78;;;17.50;54.16
70217;BME280;65567;55.684;37.570;2023-07-13T03:13:37;98190.00;;;17.57;54.28
70217;BME280;65567;55.684;37.570;2023-07-13T03:16:04;98184.81;;;17.65;54.16
70217;BME280;65567;55.684;37.570;2023-07-13T03:18:30;98184.81;;;17.65;53.69
70217;BME280;65567;55.684;37.570;2023-07-13T03:20:55;98195.47;;;17.55;54.19
70217;BME280;65567;55.684;37.570;2023-07-13T03:23:22;98195.53;;;17.63;54.00
70217;BME280;65567;55.684;37.570;2023-07-13T03:25:48;98202.31;;;17.76;53.87
70217;BME280;65567;55.684;37.570;2023-07-13T03:28:14;98205.78;;;17.76;53.75
70217;BME280;65567;55.684;37.570;2023-07-13T03:30:41;98199.34;;;17.79;53.96
70217;BME280;65567;55.684;37.570;2023-07-13T03:33:07;98197.25;;;17.82;53.54
70217;BME280;65567;55.684;37.570;2023-07-13T03:35:34;98196.03;;;17.77;53.86
70217;BME280;65567;55.684;37.570;2023-07-13T03:37:59;98186.56;;;17.74;53.78
70217;BME280;65567;55.684;37.570;2023-07-13T03:40:27;98195.34;;;17.75;54.04
70217;BME280;65567;55.684;37.570;2023-07-13T03:43:18;98199.13;;;17.72;54.08
70217;BME280;65567;55.684;37.570;2023-07-13T03:45:49;98202.47;;;17.74;53.96
70217;BME280;65567;55.684;37.570;2023-07-13T03:48:15;98207.19;;;17.80;53.96
70217;BME280;65567;55.684;37.570;2023-07-13T03:50:41;98200.41;;;17.68;54.37
70217;BME280;65567;55.684;37.570;2023-07-13T03:53:07;98206.91;;;17.56;54.62
70217;BME280;65567;55.684;37.570;2023-07-13T03:55:32;98209.69;;;17.54;54.77
70217;BME280;65567;55.684;37.570;2023-07-13T03:58:00;98213.25;;;17.63;54.67
70217;BME280;65567;55.684;37.570;2023-07-13T04:00:26;98206.78;;;17.75;54.35
70217;BME280;65567;55.684;37.570;2023-07-13T04:02:52;98207.06;;;17.72;54.28
70217;BME280;65567;55.684;37.570;2023-07-13T04:05:18;98212.69;;;17.87;54.38
70217;BME280;65567;55.684;37.570;2023-07-13T04:07:44;98210.22;;;17.86;53.95
70217;BME280;65567;55.684;37.570;2023-07-13T04:10:09;98199.00;;;17.92;54.11
70217;BME280;65567;55.684;37.570;2023-07-13T04:12:35;98208.22;;;17.88;54.25
70217;BME280;65567;55.684;37.570;2023-07-13T04:15:01;98207.66;;;17.94;54.06
70217;BME280;65567;55.684;37.570;2023-07-13T04:17:27;98203.69;;;17.80;54.14
70217;BME280;65567;55.684;37.570;2023-07-13T04:19:52;98214.03;;;17.73;54.25
70217;BME280;65567;55.684;37.570;2023-07-13T04:22:18;98214.72;;;17.75;54.41
70217;BME280;65567;55.684;37.570;2023-07-13T04:24:44;98214.59;;;17.77;54.43
70217;BME280;65567;55.684;37.570;2023-07-13T04:27:09;98212.00;;;17.95;54.09
70217;BME280;65567;55.684;37.570;2023-07-13T04:29:35;98211.84;;;17.87;54.56
70217;BME280;65567;55.684;37.570;2023-07-13T04:32:01;98198.59;;;17.87;54.43
70217;BME280;65567;55.684;37.570;2023-07-13T04:34:26;98195.19;;;18.04;53.97
70217;BME280;65567;55.684;37.570;2023-07-13T04:36:52;98195.09;;;18.14;53.67
70217;BME280;65567;55.684;37.570;2023-07-13T04:39:18;98196.00;;;18.23;53.35
70217;BME280;65567;55.684;37.570;2023-07-13T04:41:44;98192.00;;;18.19;53.65
70217;BME280;65567;55.684;37.570;2023-07-13T04:44:09;98190.63;;;18.14;53.91
70217;BME280;65567;55.684;37.570;2023-07-13T04:46:35;98189.19;;;18.20;53.86
70217;BME280;65567;55.684;37.570;2023-07-13T04:49:01;98190.00;;;18.21;53.63
70217;BME280;65567;55.684;37.570;2023-07-13T04:51:29;98198.88;;;18.29;53.70
70217;BME280;65567;55.684;37.570;2023-07-13T04:53:55;98194.03;;;18.25;53.54
70217;BME280;65567;55.684;37.570;2023-07-13T04:56:20;98192.44;;;18.32;53.37
70217;BME280;65567;55.684;37.570;2023-07-13T04:58:46;98194.09;;;18.51;53.06
70217;BME280;65567;55.684;37.570;2023-07-13T05:01:12;98191.84;;;18.64;52.67
70217;BME280;65567;55.684;37.570;2023-07-13T05:03:39;98184.47;;;18.76;52.21
70217;BME280;65567;55.684;37.570;2023-07-13T05:06:07;98195.53;;;18.90;51.87
70217;BME280;65567;55.684;37.570;2023-07-13T05:08:35;98198.44;;;19.05;51.46
70217;BME280;65567;55.684;37.570;2023-07-13T05:11:01;98194.66;;;19.15;51.18
70217;BME280;65567;55.684;37.570;2023-07-13T05:13:27;98200.38;;;19.29;51.06
70217;BME280;65567;55.684;37.570;2023-07-13T05:15:58;98191.81;;;19.43;50.20
70217;BME280;65567;55.684;37.570;2023-07-13T05:18:24;98198.47;;;19.47;50.36
70217;BME280;65567;55.684;37.570;2023-07-13T05:21:08;98200.13;;;19.48;50.19
70217;BME280;65567;55.684;37.570;2023-07-13T05:23:34;98205.63;;;19.55;50.14
70217;BME280;65567;55.684;37.570;2023-07-13T05:26:00;98204.22;;;19.86;49.80
70217;BME280;65567;55.684;37.570;2023-07-13T05:28:27;98201.50;;;20.37;49.00
70217;BME280;65567;55.684;37.570;2023-07-13T05:30:53;98194.66;;;20.75;48.12
70217;BME280;65567;55.684;37.570;2023-07-13T05:33:19;98205.97;;;20.94;47.31
70217;BME280;65567;55.684;37.570;2023-07-13T05:35:45;98203.91;;;21.12;46.87
70217;BME280;65567;55.684;37.570;2023-07-13T05:38:11;98209.22;;;21.12;46.18
70217;BME280;65567;55.684;37.570;2023-07-13T05:40:36;98198.97;;;20.93;46.25
70217;BME280;65567;55.684;37.570;2023-07-13T05:43:03;98183.31;;;20.90;46.24
70217;BME280;65567;55.684;37.570;2023-07-13T05:45:28;98198.75;;;21.11;45.77
70217;BME280;65567;55.684;37.570;2023-07-13T05:47:54;98205.94;;;21.50;45.11
70217;BME280;65567;55.684;37.570;2023-07-13T05:50:20;98194.31;;;21.83;44.40
70217;BME280;65567;55.684;37.570;2023-07-13T05:52:46;98186.84;;;22.01;43.87
70217;BME280;65567;55.684;37.570;2023-07-13T05:55:12;98186.84;;;22.01;43.73
70217;BME280;65567;55.684;37.570;2023-07-13T05:57:38;98179.66;;;22.02;43.70
70217;BME280;65567;55.684;37.570;2023-07-13T06:00:05;98200.00;;;22.26;43.04
70217;BME280;65567;55.684;37.570;2023-07-13T06:02:30;98192.13;;;22.56;42.40
70217;BME280;65567;55.684;37.570;2023-07-13T06:04:56;98190.00;;;22.51;42.48
70217;BME280;65567;55.684;37.570;2023-07-13T06:07:22;98191.25;;;22.40;42.35
70217;BME280;65567;55.684;37.570;2023-07-13T06:09:50;98187.88;;;22.47;42.04
70217;BME280;65567;55.684;37.570;2023-07-13T06:12:16;98186.06;;;22.77;41.73
70217;BME280;65567;55.684;37.570;2023-07-13T06:14:42;98183.91;;;22.96;41.17
70217;BME280;65567;55.684;37.570;2023-07-13T06:17:08;98175.03;;;22.80;41.17
70217;BME280;65567;55.684;37.570;2023-07-13T06:19:34;98176.88;;;22.65;41.15
70217;BME280;65567;55.684;37.570;2023-07-13T06:22:00;98173.06;;;22.59;41.07
70217;BME280;65567;55.684;37.570;2023-07-13T06:24:26;98177.81;;;22.87;40.58
70217;BME280;65567;55.684;37.570;2023-07-13T06:26:52;98166.03;;;22.96;40.22
70217;BME280;65567;55.684;37.570;2023-07-13T06:29:17;98177.66;;;23.18;39.79
70217;BME280;65567;55.684;37.570;2023-07-13T06:31:43;98168.31;;;23.29;39.42
70217;BME280;65567;55.684;37.570;2023-07-13T06:34:09;98151.94;;;23.32;39.40
70217;BME280;65567;55.684;37.570;2023-07-13T06:36:35;98168.13;;;23.46;39.04
70217;BME280;65567;55.684;37.570;2023-07-13T06:39:02;98165.06;;;23.49;38.85
70217;BME280;65567;55.684;37.570;2023-07-13T06:41:28;98159.41;;;23.73;38.68
70217;BME280;65567;55.684;37.570;2023-07-13T06:43:54;98155.09;;;23.94;37.76
70217;BME280;65567;55.684;37.570;2023-07-13T06:46:22;98150.16;;;23.91;36.95
70217;BME280;65567;55.684;37.570;2023-07-13T06:48:49;98165.66;;;23.81;37.07
70217;BME280;65567;55.684;37.570;2023-07-13T06:51:18;98162.31;;;23.79;37.01
70217;BME280;65567;55.684;37.570;2023-07-13T06:53:43;98165.25;;;23.84;37.17
70217;BME280;65567;55.684;37.570;2023-07-13T06:56:10;98164.78;;;23.95;36.90
70217;BME280;65567;55.684;37.570;2023-07-13T06:58:36;98160.47;;;23.94;37.25
70217;BME280;65567;55.684;37.570;2023-07-13T07:01:03;98169.59;;;24.00;36.81
70217;BME280;65567;55.684;37.570;2023-07-13T07:03:29;98163.69;;;23.89;36.82
70217;BME280;65567;55.684;37.570;2023-07-13T07:06:00;98159.31;;;23.67;37.08
70217;BME280;65567;55.684;37.570;2023-07-13T07:08:25;98163.91;;;23.36;37.41
70217;BME280;65567;55.684;37.570;2023-07-13T07:10:51;98167.03;;;22.95;37.83
70217;BME280;65567;55.684;37.570;2023-07-13T07:13:19;98160.78;;;22.88;38.69
70217;BME280;65567;55.684;37.570;2023-07-13T07:15:45;98160.88;;;22.94;40.61
70217;BME280;65567;55.684;37.570;2023-07-13T07:18:11;98158.09;;;23.03;39.17
70217;BME280;65567;55.684;37.570;2023-07-13T07:20:37;98161.88;;;23.08;38.70
70217;BME280;65567;55.684;37.570;2023-07-13T07:23:03;98171.53;;;23.09;39.53
70217;BME280;65567;55.684;37.570;2023-07-13T07:25:28;98164.69;;;23.15;39.44
70217;BME280;65567;55.684;37.570;2023-07-13T07:27:57;98164.47;;;23.17;39.00
70217;BME280;65567;55.684;37.570;2023-07-13T07:30:24;98174.97;;;23.33;38.50
70217;BME280;65567;55.684;37.570;2023-07-13T07:32:50;98169.72;;;23.40;38.21
70217;BME280;65567;55.684;37.570;2023-07-13T07:35:16;98165.94;;;23.34;38.17
70217;BME280;65567;55.684;37.570;2023-07-13T07:37:41;98175.25;;;23.38;38.71
70217;BME280;65567;55.684;37.570;2023-07-13T07:40:08;98178.66;;;23.32;37.96
70217;BME280;65567;55.684;37.570;2023-07-13T07:42:34;98179.22;;;23.27;38.77
70217;BME280;65567;55.684;37.570;2023-07-13T07:44:59;98185.00;;;23.31;38.34
70217;BME280;65567;55.684;37.570;2023-07-13T07:47:26;98191.00;;;23.33;38.15
70217;BME280;65567;55.684;37.570;2023-07-13T07:49:52;98188.81;;;23.22;38.88
70217;BME280;65567;55.684;37.570;2023-07-13T07:52:18;98187.56;;;23.09;38.88
70217;BME280;65567;55.684;37.570;2023-07-13T07:54:44;98191.28;;;23.08;39.17
70217;BME280;65567;55.684;37.570;2023-07-13T07:57:09;98193.72;;;22.95;39.15
70217;BME280;65567;55.684;37.570;2023-07-13T07:59:36;98188.88;;;22.84;39.68
70217;BME280;65567;55.684;37.570;2023-07-13T08:02:03;98189.88;;;22.83;40.28
70217;BME280;65567;55.684;37.570;2023-07-13T08:04:29;98186.25;;;22.60;40.79
70217;BME280;65567;55.684;37.570;2023-07-13T08:06:55;98189.25;;;22.57;40.54
70217;BME280;65567;55.684;37.570;2023-07-13T08:09:22;98187.78;;;22.55;40.41
70217;BME280;65567;55.684;37.570;2023-07-13T08:11:47;98186.75;;;22.41;40.25
70217;BME280;65567;55.684;37.570;2023-07-13T08:14:13;98196.25;;;22.35;40.70
70217;BME280;65567;55.684;37.570;2023-07-13T08:16:39;98187.78;;;22.32;40.62
70217;BME280;65567;55.684;37.570;2023-07-13T08:19:05;98192.91;;;22.41;40.48
70217;BME280;65567;55.684;37.570;2023-07-13T08:21:31;98180.25;;;22.35;40.44
70217;BME280;65567;55.684;37.570;2023-07-13T08:23:57;98195.88;;;22.47;40.35
70217;BME280;65567;55.684;37.570;2023-07-13T08:26:23;98180.97;;;22.52;40.23
70217;BME280;65567;55.684;37.570;2023-07-13T08:28:49;98179.63;;;22.56;40.46
70217;BME280;65567;55.684;37.570;2023-07-13T08:31:15;98182.97;;;22.73;39.65
70217;BME280;65567;55.684;37.570;2023-07-13T08:33:40;98193.69;;;22.65;38.68
70217;BME280;65567;55.684;37.570;2023-07-13T08:36:07;98191.13;;;22.57;38.46
70217;BME280;65567;55.684;37.570;2023-07-13T08:38:33;98184.28;;;22.54;39.36
70217;BME280;65567;55.684;37.570;2023-07-13T08:40:58;98203.59;;;22.41;38.30
70217;BME280;65567;55.684;37.570;2023-07-13T08:43:35;98191.47;;;22.07;38.98
70217;BME280;65567;55.684;37.570;2023-07-13T08:46:09;98195.59;;;21.87;39.77
70217;BME280;65567;55.684;37.570;2023-07-13T08:48:53;98195.06;;;21.68;40.83
70217;BME280;65567;55.684;37.570;2023-07-13T08:51:47;98201.25;;;21.52;41.96
70217;BME280;65567;55.684;37.570;2023-07-13T08:54:26;98198.78;;;21.59;42.45
70217;BME280;65567;55.684;37.570;2023-07-13T08:56:54;98216.56;;;21.67;42.51
70217;BME280;65567;55.684;37.570;2023-07-13T08:59:26;98218.72;;;21.63;43.02
70217;BME280;65567;55.684;37.570;2023-07-13T09:02:23;98199.06;;;21.64;43.74
70217;BME280;65567;55.684;37.570;2023-07-13T09:05:03;98218.91;;;21.61;44.43
70217;BME280;65567;55.684;37.570;2023-07-13T09:10:21;98217.69;;;21.72;44.88
70217;BME280;65567;55.684;37.570;2023-07-13T09:13:04;98209.94;;;21.86;44.87
70217;BME280;65567;55.684;37.570;2023-07-13T09:15:41;98221.38;;;21.94;45.61
70217;BME280;65567;55.684;37.570;2023-07-13T09:18:13;98213.88;;;21.98;45.22
70217;BME280;65567;55.684;37.570;2023-07-13T09:20:42;98218.94;;;21.85;46.04
70217;BME280;65567;55.684;37.570;2023-07-13T09:23:15;98229.34;;;21.71;46.22
70217;BME280;65567;55.684;37.570;2023-07-13T09:25:46;98235.53;;;21.64;46.88
70217;BME280;65567;55.684;37.570;2023-07-13T09:28:33;98235.06;;;21.60;47.61
70217;BME280;65567;55.684;37.570;2023-07-13T09:33:45;98238.25;;;21.87;46.93
70217;BME280;65567;55.684;37.570;2023-07-13T09:38:47;98234.53;;;21.65;47.61
70217;BME280;65567;55.684;37.570;2023-07-13T09:41:20;98244.16;;;21.74;47.70
70217;BME280;65567;55.684;37.570;2023-07-13T09:44:08;98245.03;;;21.66;47.78
70217;BME280;65567;55.684;37.570;2023-07-13T09:46:35;98239.75;;;21.58;47.75
70217;BME280;65567;55.684;37.570;2023-07-13T09:49:01;98236.00;;;21.19;49.08
70217;BME280;65567;55.684;37.570;2023-07-13T09:51:26;98226.94;;;20.89;50.06
70217;BME280;65567;55.684;37.570;2023-07-13T09:53:52;98247.03;;;20.83;50.60
70217;BME280;65567;55.684;37.570;2023-07-13T09:56:28;98250.53;;;20.75;51.19
70217;BME280;65567;55.684;37.570;2023-07-13T09:58:55;98243.88;;;20.46;51.42
70217;BME280;65567;55.684;37.570;2023-07-13T10:01:38;98243.19;;;20.36;52.19
70217;BME280;65567;55.684;37.570;2023-07-13T10:04:13;98243.53;;;20.33;52.46
70217;BME280;65567;55.684;37.570;2023-07-13T10:06:42;98243.50;;;20.17;52.90
70217;BME280;65567;55.684;37.570;2023-07-13T10:09:09;98237.19;;;20.09;53.01
70217;BME280;65567;55.684;37.570;2023-07-13T10:11:36;98233.69;;;20.09;52.85
70217;BME280;65567;55.684;37.570;2023-07-13T10:14:15;98238.34;;;20.07;52.67
70217;BME280;65567;55.684;37.570;2023-07-13T10:16:45;98240.03;;;20.16;52.36
70217;BME280;65567;55.684;37.570;2023-07-13T10:19:12;98238.88;;;20.27;51.92
70217;BME280;65567;55.684;37.570;2023-07-13T10:21:49;98239.22;;;20.32;52.37
70217;BME280;65567;55.684;37.570;2023-07-13T10:24:22;98234.91;;;20.39;52.23
70217;BME280;65567;55.684;37.570;2023-07-13T10:26:54;98240.06;;;20.41;51.44
70217;BME280;65567;55.684;37.570;2023-07-13T10:29:24;98241.69;;;20.34;52.00
70217;BME280;65567;55.684;37.570;2023-07-13T10:31:51;98252.84;;;20.37;51.96
70217;BME280;65567;55.684;37.570;2023-07-13T10:34:17;98246.84;;;20.27;52.01
70217;BME280;65567;55.684;37.570;2023-07-13T10:36:46;98247.50;;;20.04;52.37
70217;BME280;65567;55.684;37.570;2023-07-13T10:39:21;98246.00;;;20.10;52.50
70217;BME280;65567;55.684;37.570;2023-07-13T10:42:02;98247.66;;;20.11;52.62
70217;BME280;65567;55.684;37.570;2023-07-13T10:44:31;98246.97;;;20.01;52.72
70217;BME280;65567;55.684;37.570;2023-07-13T10:47:07;98249.47;;;19.94;52.86
70217;BME280;65567;55.684;37.570;2023-07-13T10:49:35;98258.50;;;19.75;52.94
70217;BME280;65567;55.684;37.570;2023-07-13T10:52:02;98255.97;;;19.65;53.23
70217;BME280;65567;55.684;37.570;2023-07-13T10:59:38;98255.75;;;19.50;54.05
70217;BME280;65567;55.684;37.570;2023-07-13T11:04:41;98261.03;;;19.42;55.66
70217;BME280;65567;55.684;37.570;2023-07-13T11:07:23;98260.34;;;19.40;55.59
70217;BME280;65567;55.684;37.570;2023-07-13T11:09:54;98254.22;;;19.39;55.12
70217;BME280;65567;55.684;37.570;2023-07-13T11:23:26;98251.31;;;19.67;54.28
70217;BME280;65567;55.684;37.570;2023-07-13T11:25:34;98240.72;;;19.75;54.29
70217;BME280;65567;55.684;37.570;2023-07-13T11:33:28;98240.47;;;19.95;53.83
70217;BME280;65567;55.684;37.570;2023-07-13T11:36:16;98241.50;;;20.02;53.45
70217;BME280;65567;55.684;37.570;2023-07-13T11:38:55;98235.19;;;20.03;53.13
70217;BME280;65567;55.684;37.570;2023-07-13T11:41:35;98229.22;;;20.09;53.02
70217;BME280;65567;55.684;37.570;2023-07-13T11:44:07;98227.72;;;20.07;53.12
70217;BME280;65567;55.684;37.570;2023-07-13T11:46:36;98227.88;;;20.05;53.34
70217;BME280;65567;55.684;37.570;2023-07-13T11:49:05;98228.19;;;20.10;53.16
70217;BME280;65567;55.684;37.570;2023-07-13T11:51:35;98222.56;;;20.13;53.12
70217;BME280;65567;55.684;37.570;2023-07-13T11:54:13;98232.53;;;20.11;53.64
70217;BME280;65567;55.684;37.570;2023-07-13T11:56:42;98224.91;;;20.17;53.05
70217;BME280;65567;55.684;37.570;2023-07-13T11:59:10;98222.25;;;20.25;52.76
70217;BME280;65567;55.684;37.570;2023-07-13T12:01:43;98228.53;;;20.16;52.70
70217;BME280;65567;55.684;37.570;2023-07-13T12:04:26;98240.19;;;20.23;52.49
70217;BME280;65567;55.684;37.570;2023-07-13T12:07:05;98228.91;;;20.29;52.39
70217;BME280;65567;55.684;37.570;2023-07-13T12:09:33;98238.19;;;20.25;52.48
70217;BME280;65567;55.684;37.570;2023-07-13T12:12:02;98239.22;;;20.32;52.48
70217;BME280;65567;55.684;37.570;2023-07-13T12:14:28;98238.56;;;20.38;52.14
70217;BME280;65567;55.684;37.570;2023-07-13T12:16:54;98240.22;;;20.39;52.24
70217;BME280;65567;55.684;37.570;2023-07-13T12:19:26;98236.22;;;20.43;52.37
70217;BME280;65567;55.684;37.570;2023-07-13T12:21:57;98242.22;;;20.37;52.50
70217;BME280;65567;55.684;37.570;2023-07-13T12:24:25;98237.53;;;20.31;52.58
70217;BME280;65567;55.684;37.570;2023-07-13T12:27:02;98236.69;;;20.14;53.07
70217;BME280;65567;55.684;37.570;2023-07-13T12:29:30;98232.84;;;20.00;53.16
70217;BME280;65567;55.684;37.570;2023-07-13T12:31:57;98230.31;;;19.82;53.46
70217;BME280;65567;55.684;37.570;2023-07-13T12:34:24;98237.06;;;19.68;53.79
70217;BME280;65567;55.684;37.570;2023-07-13T12:36:56;98228.03;;;19.53;54.15
70217;BME280;65567;55.684;37.570;2023-07-13T12:39:32;98223.41;;;19.63;54.06
70217;BME280;65567;55.684;37.570;2023-07-13T12:42:20;98220.75;;;19.63;54.47
70217;BME280;65567;55.684;37.570;2023-07-13T12:44:49;98222.72;;;19.61;54.32
70217;BME280;65567;55.684;37.570;2023-07-13T12:47:15;98225.72;;;19.58;54.34
70217;BME280;65567;55.684;37.570;2023-07-13T12:49:47;98223.88;;;19.50;54.59
70217;BME280;65567;55.684;37.570;2023-07-13T12:52:16;98226.59;;;19.32;55.31
70217;BME280;65567;55.684;37.570;2023-07-13T12:54:42;98221.88;;;19.18;55.57
70217;BME280;65567;55.684;37.570;2023-07-13T12:57:17;98226.66;;;19.06;55.80
70217;BME280;65567;55.684;37.570;2023-07-13T12:59:43;98240.06;;;19.04;56.18
70217;BME280;65567;55.684;37.570;2023-07-13T13:02:28;98222.44;;;18.95;56.47
70217;BME280;65567;55.684;37.570;2023-07-13T13:04:56;98229.94;;;19.08;56.22
70217;BME280;65567;55.684;37.570;2023-07-13T13:07:23;98227.81;;;19.11;56.05
70217;BME280;65567;55.684;37.570;2023-07-13T13:09:49;98226.59;;;19.32;55.60
70217;BME280;65567;55.684;37.570;2023-07-13T13:12:15;98224.19;;;19.47;54.85
70217;BME280;65567;55.684;37.570;2023-07-13T13:14:42;98215.28;;;19.64;54.27
70217;BME280;65567;55.684;37.570;2023-07-13T13:17:35;98218.03;;;19.89;53.29
70217;BME280;65567;55.684;37.570;2023-07-13T13:20:01;98218.56;;;19.93;53.08
70217;BME280;65567;55.684;37.570;2023-07-13T13:22:27;98213.56;;;19.98;52.62
70217;BME280;65567;55.684;37.570;2023-07-13T13:24:53;98216.59;;;20.11;52.66
70217;BME280;65567;55.684;37.570;2023-07-13T13:27:21;98226.22;;;20.04;52.83